KVPS/VPS METAR and TAF weather

Enter ICAO airport designator
Station Type Date Time Source
KVPS METAR 2020/01/23 20:56 UTC NOAA

KVPS 232056Z AUTO 09006KT 10SM -RA OVC055 14/10 A2999 RMK AO2 DZE01RAB30 SLPNO P0000 60000 T01380098 57028 $


Station Type Date Time Source
KVPS Decoded METAR 2020/01/23 20:56 UTC NOAA

Valparaiso / Eglin Air Force Base, FL, United States (KVPS) 30-29N 086-31W 29M
Jan 23, 2020 - 03:56 PM EST / 2020.01.23 2056 UTC
Wind: from the E (090 degrees) at 7 MPH (6 KT):0
Visibility: 10 mile(s):0
Sky conditions: overcast
Weather: light rain
Precipitation last hour: A trace
Temperature: 56.8 F (13.8 C)
Dew Point: 49.6 F (9.8 C)
Relative Humidity: 76%
Pressure (altimeter): 29.99 in. Hg (1015 hPa)
Pressure tendency: 0.08 inches (2.8 hPa) lower than three hours ago
ob: KVPS 232056Z AUTO 09006KT 10SM -RA OVC055 14/10 A2999 RMK AO2 DZE01RAB30 SLPNO P0000 60000 T01380098 57028
cycle: 21

Station Type Date Time Source
KVPS TAF 2020/01/23 18:20 UTC NOAA

TAF KVPS 231805Z 2318/2424 09009KT 9999 VCSH FEW018 SCT040 BKN070 OVC100 QNH3004INS
BECMG 2321/2322 12010G15KT 9000 -SHRA BR SCT008 OVC018 QNH2996INS
TEMPO 2322/2324 BKN008
BECMG 2323/2324 15010KT 4800 -SHRA BR SCT003 OVC010 QNH2993INS
TEMPO 2323/2403 19015G20KT 3200 -TSRA BR OVC008CB
BECMG 2406/2407 16012KT 3200 BR FEW008 BKN012 QNH2995INS
BECMG 2408/2409 15009KT 0800 FG OVC005 QNH2996INS
BECMG 2413/2414 32012G18KT 9000 BR BKN012 OVC030 QNH2998INS
BECMG 2418/2419 33015G20KT 9999 NSW SCT012 QNH3002INS TX15/2321Z TN10/2410Z

Example: see airport list